Terminal Aerodrome Forecast
Issued by NWS

Current Version | Previous Version | Text Only | Print | Product List | Glossary On
Versions: 1 2 3 4 5 6 7 8 9 10 11 12 13 14 15
000
FTUS46 KSEW 270500
TAFBLI
TAF
KBLI 270520Z 2706/2806 03004KT P6SM OVC090
     FM270900 03005KT P6SM -RA OVC050
     FM271500 02007KT P6SM BKN050
     FM272000 02014G24KT P6SM SCT050=

USA.gov is the U.S. government's official web portal to all federal, state and local government web resources and services.